Lovettsville, Virginia
Current Conditions -  °F | °C
As of 7:55 AM on Friday 19 Dec 2014 (Local Time) from KJYO Reporting Station
Overcast Overcast  
Wind Chill: 27°   Ceiling: 3200
Heat Index: 34°   Visibility: 10mi
Dew Point: 27°   Wind: 8mph
Humidity: 75%   Direction: 330°NNW
Pressure: 30.16"   Gusts: NA
Location:  39.27°N, 77.64°W
Report Text: KJYO 191255Z AUTO 33007KT 10SM OVC032 01/M03 A3016 RMK AO2
Loading
Personal Weather Stations






























Interactive Weather Map New forecast layout! Learn more

10-Day Weather Forecast

Advertisements
Track Severe Weather on mobile